createdAt,value
2018-03-22T00:01:02.646Z,100899.16
2018-03-22T00:02:09.127Z,100898.29
2018-03-22T00:03:14.825Z,100894.84
2018-03-22T00:04:21.311Z,100897.00
2018-03-22T00:05:27.005Z,100887.50
2018-03-22T00:06:32.721Z,100890.53
2018-03-22T00:07:38.451Z,100890.09
2018-03-22T00:08:44.156Z,100888.80
2018-03-22T00:09:50.953Z,100888.81
2018-03-22T00:10:56.652Z,100890.58
2018-03-22T00:12:03.126Z,100884.53
2018-03-22T00:13:09.694Z,100882.81
2018-03-22T00:14:16.154Z,100883.28
2018-03-22T00:15:21.853Z,100876.77
2018-03-22T00:16:27.554Z,100881.95
2018-03-22T00:17:33.252Z,100875.05
2018-03-22T00:18:39.756Z,100876.77
2018-03-22T00:19:45.458Z,100877.20
2018-03-22T00:20:51.916Z,100872.88
2018-03-22T00:21:58.393Z,100869.05
2018-03-22T00:23:04.089Z,100869.92
2018-03-22T00:24:09.825Z,100868.19
2018-03-22T00:25:15.530Z,100866.03
2018-03-22T00:26:21.553Z,100862.53
2018-03-22T00:27:28.017Z,100862.48
2018-03-22T00:28:33.714Z,100856.44
2018-03-22T00:29:39.426Z,100855.53
2018-03-22T00:30:45.141Z,100854.66
2018-03-22T00:31:50.875Z,100855.09
2018-03-22T00:32:56.587Z,100851.58
2018-03-22T00:34:03.066Z,100847.20
2018-03-22T00:35:09.545Z,100854.49
2018-03-22T00:36:15.255Z,100848.45
2018-03-22T00:37:21.720Z,100848.88
2018-03-22T00:38:28.194Z,100846.70
2018-03-22T00:39:33.890Z,100849.69
2018-03-22T00:40:39.618Z,100850.91
2018-03-22T00:41:45.327Z,100841.41
2018-03-22T00:42:51.027Z,100840.93
2018-03-22T00:43:56.716Z,100845.25
2018-03-22T00:45:02.531Z,100834.45
2018-03-22T00:46:08.357Z,100833.16
2018-03-22T00:47:14.841Z,100832.73
2018-03-22T00:48:20.540Z,100835.31
2018-03-22T00:49:26.808Z,100829.27
2018-03-22T00:50:33.303Z,100824.94
2018-03-22T00:51:39.020Z,100826.20
2018-03-22T00:52:45.293Z,100820.63
2018-03-22T00:53:50.988Z,100820.63
2018-03-22T00:54:56.688Z,100817.61
2018-03-22T00:56:02.208Z,100820.20
2018-03-22T00:57:07.915Z,100815.84
2018-03-22T00:58:13.608Z,100818.86
2018-03-22T00:59:19.376Z,100814.58
2018-03-22T01:00:25.069Z,100817.13
2018-03-22T01:01:30.776Z,100817.13
2018-03-22T01:02:36.500Z,100812.80
2018-03-22T01:03:42.212Z,100807.19
2018-03-22T01:04:47.947Z,100805.89
2018-03-22T01:05:53.665Z,100802.86
2018-03-22T01:06:59.054Z,100800.70
2018-03-22T01:08:04.774Z,100803.73
2018-03-22T01:09:10.497Z,100800.27
2018-03-22T01:10:16.192Z,100799.35
2018-03-22T01:11:21.907Z,100795.45
2018-03-22T01:12:27.596Z,100792.80
2018-03-22T01:13:34.089Z,100791.94
2018-03-22T01:14:40.106Z,100783.72
2018-03-22T01:15:45.799Z,100783.73
2018-03-22T01:16:51.508Z,100772.93
2018-03-22T01:17:57.199Z,100771.65
2018-03-22T01:19:03.681Z,100770.77
2018-03-22T01:20:10.163Z,100769.41
2018-03-22T01:21:15.868Z,100765.52
2018-03-22T01:22:22.342Z,100758.63
2018-03-22T01:23:28.487Z,100756.91
2018-03-22T01:24:34.333Z,100751.27
2018-03-22T01:25:40.034Z,100756.83
2018-03-22T01:26:45.738Z,100753.36
2018-03-22T01:27:51.448Z,100753.36
2018-03-22T01:28:57.161Z,100749.45
2018-03-22T01:30:02.881Z,100747.25
2018-03-22T01:31:08.570Z,100743.72
2018-03-22T01:32:15.036Z,100743.27
2018-03-22T01:33:20.736Z,100746.28
2018-03-22T01:34:26.454Z,100741.03
2018-03-22T01:35:32.208Z,100741.47
2018-03-22T01:36:37.930Z,100743.57
2018-03-22T01:37:43.627Z,100747.38
2018-03-22T01:38:50.096Z,100739.59
2018-03-22T01:39:55.809Z,100732.23
2018-03-22T01:41:01.518Z,100736.14
2018-03-22T01:42:07.405Z,100733.53
2018-03-22T01:43:13.116Z,100738.72
2018-03-22T01:44:18.840Z,100737.84
2018-03-22T01:45:24.542Z,100735.70
2018-03-22T01:46:31.024Z,100737.44
2018-03-22T01:47:36.713Z,100728.78
2018-03-22T01:48:43.175Z,100734.83
2018-03-22T01:49:49.660Z,100736.19
2018-03-22T01:50:55.027Z,100734.89
2018-03-22T01:52:00.744Z,100734.90
2018-03-22T01:53:15.270Z,100729.22
2018-03-22T01:54:21.740Z,100728.84
2018-03-22T01:55:27.446Z,100725.77
2018-03-22T01:56:33.148Z,100725.78
2018-03-22T01:57:38.868Z,100719.34
2018-03-22T01:58:44.573Z,100714.11
2018-03-22T01:59:51.558Z,100708.45
2018-03-22T02:00:58.038Z,100714.49
2018-03-22T02:02:03.754Z,100714.45
2018-03-22T02:03:10.447Z,100712.30
2018-03-22T02:04:16.166Z,100703.62
2018-03-22T02:05:22.628Z,100709.23
2018-03-22T02:06:28.342Z,100706.59
2018-03-22T02:07:34.858Z,100701.39
2018-03-22T02:08:40.853Z,100698.78
2018-03-22T02:09:47.361Z,100703.05
2018-03-22T02:10:53.093Z,100701.36
2018-03-22T02:11:58.788Z,100699.59
2018-03-22T02:13:05.577Z,100697.91
2018-03-22T02:14:12.060Z,100697.50
2018-03-22T02:15:17.573Z,100693.61
2018-03-22T02:16:23.272Z,100698.81
2018-03-22T02:17:28.790Z,100688.42
2018-03-22T02:18:34.494Z,100697.42
2018-03-22T02:19:39.893Z,100696.13
2018-03-22T02:20:45.057Z,100695.27
2018-03-22T02:21:50.757Z,100691.88
2018-03-22T02:22:56.465Z,100689.27
2018-03-22T02:24:02.186Z,100682.87
2018-03-22T02:25:07.921Z,100680.67
2018-03-22T02:26:13.641Z,100683.30
2018-03-22T02:27:20.098Z,100682.45
2018-03-22T02:28:26.565Z,100679.86
2018-03-22T02:29:32.260Z,100679.02
2018-03-22T02:30:37.998Z,100675.91
2018-03-22T02:31:43.702Z,100672.94
2018-03-22T02:32:49.193Z,100672.88
2018-03-22T02:33:55.110Z,100668.56
2018-03-22T02:35:00.818Z,100659.53
2018-03-22T02:36:06.555Z,100653.94
2018-03-22T02:37:12.286Z,100656.53
2018-03-22T02:38:19.416Z,100651.77
2018-03-22T02:39:25.108Z,100651.76
2018-03-22T02:40:30.811Z,100652.22
2018-03-22T02:41:36.523Z,100646.24
2018-03-22T02:42:42.217Z,100642.71
2018-03-22T02:43:48.682Z,100637.55
2018-03-22T02:44:54.394Z,100636.76
2018-03-22T02:46:00.101Z,100636.76
2018-03-22T02:47:05.829Z,100634.22
2018-03-22T02:48:11.534Z,100629.52
2018-03-22T02:49:18.002Z,100628.64
2018-03-22T02:50:23.914Z,100623.86
2018-03-22T02:51:29.628Z,100620.78
2018-03-22T02:52:35.354Z,100619.09
2018-03-22T02:53:41.070Z,100610.03
2018-03-22T02:54:46.767Z,100614.78
2018-03-22T02:55:52.468Z,100611.75
2018-03-22T02:56:57.882Z,100612.21
2018-03-22T02:58:04.590Z,100609.20
2018-03-22T02:59:10.498Z,100611.41
2018-03-22T03:00:16.197Z,100607.55
2018-03-22T03:01:21.886Z,100607.55
2018-03-22T03:02:27.601Z,100612.39
2018-03-22T03:03:34.095Z,100605.93
2018-03-22T03:04:39.813Z,100601.66
2018-03-22T03:05:45.532Z,100606.00
2018-03-22T03:06:52.261Z,100600.47
2018-03-22T03:07:57.952Z,100600.02
2018-03-22T03:09:03.468Z,100600.88
2018-03-22T03:10:09.942Z,100595.70
2018-03-22T03:11:16.415Z,100590.55
2018-03-22T03:12:22.134Z,100585.44
2018-03-22T03:13:28.592Z,100585.52
2018-03-22T03:14:35.089Z,100583.37
2018-03-22T03:15:40.781Z,100586.89
2018-03-22T03:16:47.245Z,100578.69
2018-03-22T03:17:53.712Z,100575.70
2018-03-22T03:19:00.174Z,100569.72
2018-03-22T03:20:06.658Z,100567.15
2018-03-22T03:21:12.367Z,100567.20
2018-03-22T03:22:18.861Z,100561.66
2018-03-22T03:23:24.576Z,100556.06
2018-03-22T03:24:30.282Z,100552.19
2018-03-22T03:25:36.004Z,100553.05
2018-03-22T03:26:41.705Z,100549.24
2018-03-22T03:27:47.425Z,100550.91
2018-03-22T03:28:53.911Z,100545.77
2018-03-22T03:29:59.617Z,100543.99
2018-03-22T03:31:06.156Z,100539.16
2018-03-22T03:32:12.016Z,100535.25
2018-03-22T03:33:18.485Z,100541.73
2018-03-22T03:34:24.960Z,100536.55
2018-03-22T03:35:31.003Z,100538.70
2018-03-22T03:36:37.485Z,100533.45
2018-03-22T03:37:43.525Z,100525.70
2018-03-22T03:38:49.249Z,100521.38
2018-03-22T03:39:54.981Z,100516.62
2018-03-22T03:41:01.459Z,100511.83
2018-03-22T03:42:07.193Z,100519.55
2018-03-22T03:43:12.894Z,100516.45
2018-03-22T03:44:18.819Z,100514.70
2018-03-22T03:45:24.196Z,100510.75
2018-03-22T03:46:30.666Z,100515.91
2018-03-22T03:47:36.409Z,100515.48
2018-03-22T03:48:42.111Z,100507.34
2018-03-22T03:49:48.590Z,100517.20
2018-03-22T03:50:55.069Z,100505.55
2018-03-22T03:52:00.837Z,100515.48
2018-03-22T03:53:06.740Z,100509.94
2018-03-22T03:54:13.231Z,100506.99
2018-03-22T03:55:19.256Z,100510.05
2018-03-22T03:56:24.967Z,100507.86
2018-03-22T03:57:31.450Z,100509.61
2018-03-22T03:58:37.961Z,100504.84
2018-03-22T03:59:43.673Z,100501.84
2018-03-22T04:00:49.385Z,100495.78
2018-03-22T04:01:55.109Z,100495.34
2018-03-22T04:03:01.603Z,100493.22
2018-03-22T04:04:07.156Z,100498.05
2018-03-22T04:05:12.869Z,100492.00
2018-03-22T04:06:18.603Z,100491.98
2018-03-22T04:07:25.256Z,100491.12
2018-03-22T04:08:31.771Z,100488.90
2018-03-22T04:09:37.512Z,100482.84
2018-03-22T04:10:43.517Z,100479.89
2018-03-22T04:11:49.226Z,100476.44
2018-03-22T04:12:54.929Z,100475.94
2018-03-22T04:14:00.642Z,100473.86
2018-03-22T04:15:06.377Z,100474.30
2018-03-22T04:16:12.857Z,100471.34
2018-03-22T04:17:18.628Z,100467.84
2018-03-22T04:18:24.342Z,100465.25
2018-03-22T04:19:30.070Z,100467.92
2018-03-22T04:20:35.807Z,100464.46
2018-03-22T04:21:41.525Z,100457.89
2018-03-22T04:22:48.009Z,100456.16
2018-03-22T04:23:53.728Z,100456.14
2018-03-22T04:25:00.197Z,100457.03
2018-03-22T04:26:05.944Z,100457.02
2018-03-22T04:27:11.656Z,100458.26
2018-03-22T04:28:18.160Z,100458.20
2018-03-22T04:29:23.860Z,100457.28
2018-03-22T04:30:30.348Z,100452.95
2018-03-22T04:31:36.107Z,100457.69
2018-03-22T04:32:41.838Z,100461.16
2018-03-22T04:33:47.553Z,100462.05
2018-03-22T04:34:54.028Z,100453.82
2018-03-22T04:35:59.758Z,100444.33
2018-03-22T04:37:06.460Z,100443.52
2018-03-22T04:38:12.177Z,100445.64
2018-03-22T04:39:17.876Z,100448.38
2018-03-22T04:40:23.593Z,100447.08
2018-03-22T04:41:29.306Z,100442.77
2018-03-22T04:42:34.805Z,100443.13
2018-03-22T04:43:41.284Z,100435.86
2018-03-22T04:44:47.001Z,100441.90
2018-03-22T04:45:53.484Z,100436.72
2018-03-22T04:46:59.202Z,100436.66
2018-03-22T04:48:05.373Z,100440.54
2018-03-22T04:49:11.085Z,100430.19
2018-03-22T04:50:16.850Z,100436.64
2018-03-22T04:51:23.325Z,100430.62
2018-03-22T04:52:29.040Z,100436.63
2018-03-22T04:53:35.549Z,100432.73
2018-03-22T04:54:41.665Z,100430.09
2018-03-22T04:55:47.370Z,100431.81
2018-03-22T04:56:53.852Z,100426.70
2018-03-22T04:57:59.585Z,100421.95
2018-03-22T04:59:06.102Z,100423.25
2018-03-22T05:00:11.846Z,100419.02
2018-03-22T05:01:17.585Z,100420.31
2018-03-22T05:02:23.324Z,100415.52
2018-03-22T05:03:29.053Z,100417.22
2018-03-22T05:04:34.781Z,100418.97
2018-03-22T05:05:40.494Z,100414.73
2018-03-22T05:06:46.210Z,100411.70
2018-03-22T05:07:51.916Z,100414.30
2018-03-22T05:08:57.455Z,100412.48
2018-03-22T05:10:03.482Z,100410.30
2018-03-22T05:11:09.196Z,100409.44
2018-03-22T05:12:15.683Z,100407.70
2018-03-22T05:13:21.405Z,100409.36
2018-03-22T05:14:27.120Z,100410.22
2018-03-22T05:15:32.692Z,100410.61
2018-03-22T05:16:38.439Z,100409.25
2018-03-22T05:17:43.957Z,100405.34
2018-03-22T05:18:49.671Z,100400.59
2018-03-22T05:19:56.912Z,100394.96
2018-03-22T05:21:02.667Z,100401.39
2018-03-22T05:22:08.380Z,100398.03
2018-03-22T05:23:14.110Z,100397.15
2018-03-22T05:24:19.818Z,100392.84
2018-03-22T05:25:25.545Z,100395.44
2018-03-22T05:26:31.318Z,100389.83
2018-03-22T05:27:38.015Z,100388.44
2018-03-22T05:28:43.752Z,100387.55
2018-03-22T05:29:49.782Z,100382.37
2018-03-22T05:30:55.485Z,100381.49
2018-03-22T05:32:01.672Z,100378.90
2018-03-22T05:33:07.376Z,100379.78
2018-03-22T05:34:13.109Z,100367.25
2018-03-22T05:35:19.108Z,100372.88
2018-03-22T05:36:24.819Z,100373.70
2018-03-22T05:37:31.407Z,100370.62
2018-03-22T05:38:37.106Z,100370.14
2018-03-22T05:39:42.699Z,100368.33
2018-03-22T05:40:48.731Z,100369.63
2018-03-22T05:41:54.448Z,100366.60
2018-03-22T05:43:00.967Z,100367.05
2018-03-22T05:44:06.689Z,100362.27
2018-03-22T05:45:12.412Z,100361.82
2018-03-22T05:46:18.158Z,100354.43
2018-03-22T05:47:23.870Z,100359.13
2018-03-22T05:48:30.364Z,100350.00
2018-03-22T05:49:36.080Z,100351.27
2018-03-22T05:50:41.796Z,100341.72
2018-03-22T05:51:47.496Z,100345.55
2018-03-22T05:52:53.249Z,100341.72
2018-03-22T05:53:58.989Z,100339.95
2018-03-22T05:55:04.703Z,100342.55
2018-03-22T05:56:10.465Z,100336.89
2018-03-22T05:57:16.173Z,100338.97
2018-03-22T05:58:22.652Z,100345.77
2018-03-22T05:59:28.413Z,100342.25
2018-03-22T06:00:34.123Z,100347.02
2018-03-22T06:01:39.817Z,100349.00
2018-03-22T06:02:45.526Z,100346.45
2018-03-22T06:03:51.292Z,100338.61
2018-03-22T06:04:57.548Z,100330.40
2018-03-22T06:06:03.269Z,100329.53
2018-03-22T06:07:08.981Z,100326.94
2018-03-22T06:08:14.772Z,100324.30
2018-03-22T06:09:20.484Z,100321.33
2018-03-22T06:10:26.324Z,100325.21
2018-03-22T06:11:32.034Z,100333.27
2018-03-22T06:12:37.736Z,100332.33
2018-03-22T06:13:43.453Z,100326.64
2018-03-22T06:14:49.193Z,100326.13
2018-03-22T06:15:54.920Z,100315.74
2018-03-22T06:17:00.636Z,100315.73
2018-03-22T06:18:07.108Z,100315.66
2018-03-22T06:19:12.827Z,100313.00
2018-03-22T06:20:19.319Z,100313.24
2018-03-22T06:21:25.059Z,100307.48
2018-03-22T06:22:30.759Z,100307.33
2018-03-22T06:23:37.243Z,100305.91
2018-03-22T06:24:43.715Z,100304.06
2018-03-22T06:25:49.425Z,100299.70
2018-03-22T06:26:55.927Z,100299.61
2018-03-22T06:28:01.645Z,100292.45
2018-03-22T06:29:07.357Z,100286.26
2018-03-22T06:30:13.052Z,100284.05
2018-03-22T06:31:18.766Z,100275.75
2018-03-22T06:32:24.528Z,100271.87
2018-03-22T06:33:30.228Z,100268.80
2018-03-22T06:34:35.947Z,100273.88
2018-03-22T06:35:41.936Z,100274.23
2018-03-22T06:36:47.644Z,100269.41
2018-03-22T06:37:54.149Z,100266.78
2018-03-22T06:39:00.098Z,100264.15
2018-03-22T06:40:05.205Z,100266.30
2018-03-22T06:41:11.099Z,100258.45
2018-03-22T06:42:16.801Z,100262.64
2018-03-22T06:43:22.538Z,100259.02
2018-03-22T06:44:28.248Z,100253.41
2018-03-22T06:45:34.725Z,100255.20
2018-03-22T06:46:40.454Z,100250.28
2018-03-22T06:47:46.916Z,100252.32
2018-03-22T06:48:52.649Z,100249.22
2018-03-22T06:49:59.132Z,100243.16
2018-03-22T06:51:05.607Z,100246.27
2018-03-22T06:52:11.316Z,100242.00
2018-03-22T06:53:17.017Z,100239.25
2018-03-22T06:54:22.745Z,100234.36
2018-03-22T06:55:28.464Z,100233.90
2018-03-22T06:56:34.487Z,100234.45
2018-03-22T06:57:40.190Z,100233.59
2018-03-22T06:58:45.701Z,100233.94
2018-03-22T06:59:51.428Z,100234.42
2018-03-22T07:00:57.147Z,100227.91
2018-03-22T07:02:02.861Z,100225.84
2018-03-22T07:03:08.565Z,100227.56
2018-03-22T07:04:14.265Z,100234.73
2018-03-22T07:05:20.028Z,100225.97
2018-03-22T07:06:25.741Z,100222.17
2018-03-22T07:07:32.215Z,100227.44
2018-03-22T07:08:37.956Z,100221.77
2018-03-22T07:09:43.650Z,100221.05
2018-03-22T07:10:49.389Z,100215.25
2018-03-22T07:11:55.097Z,100221.86
2018-03-22T07:13:00.810Z,100210.36
2018-03-22T07:14:06.532Z,100200.80
2018-03-22T07:15:13.318Z,100204.27
2018-03-22T07:16:19.061Z,100193.98
2018-03-22T07:17:24.801Z,100196.21
2018-03-22T07:18:30.320Z,100187.69
2018-03-22T07:19:36.802Z,100189.91
2018-03-22T07:20:42.517Z,100184.36
2018-03-22T07:21:49.021Z,100188.29
2018-03-22T07:22:54.724Z,100186.84
2018-03-22T07:24:00.108Z,100179.45
2018-03-22T07:25:05.157Z,100176.56
2018-03-22T07:26:10.862Z,100178.09
2018-03-22T07:27:16.597Z,100170.19
2018-03-22T07:28:22.298Z,100169.55
2018-03-22T07:29:28.766Z,100169.19
2018-03-22T07:30:34.479Z,100164.78
2018-03-22T07:31:40.191Z,100162.37
2018-03-22T07:32:45.921Z,100163.63
2018-03-22T07:33:51.624Z,100164.20
2018-03-22T07:34:57.342Z,100167.89
2018-03-22T07:36:03.045Z,100155.64
2018-03-22T07:37:08.758Z,100155.26
2018-03-22T07:38:14.496Z,100161.58
2018-03-22T07:39:20.203Z,100158.62
2018-03-22T07:40:26.689Z,100158.11
2018-03-22T07:41:32.396Z,100157.23
2018-03-22T07:42:38.105Z,100166.07
2018-03-22T07:43:43.843Z,100142.97
2018-03-22T07:44:49.583Z,100149.83
2018-03-22T07:45:55.480Z,100152.05
2018-03-22T07:47:01.950Z,100147.80
2018-03-22T07:48:07.684Z,100149.50
2018-03-22T07:49:14.169Z,100137.84
2018-03-22T07:50:19.888Z,100144.74
2018-03-22T07:51:26.361Z,100144.97
2018-03-22T07:52:32.073Z,100142.22
2018-03-22T07:53:38.556Z,100148.83
2018-03-22T07:54:44.329Z,100145.17
2018-03-22T07:55:50.037Z,100150.02
2018-03-22T07:56:55.753Z,100151.48
2018-03-22T07:58:01.329Z,100151.20
2018-03-22T07:59:07.029Z,100145.17
2018-03-22T08:00:13.344Z,100146.20
2018-03-22T08:01:19.057Z,100144.22
2018-03-22T08:02:24.788Z,100137.16
2018-03-22T08:03:30.501Z,100134.67
2018-03-22T08:04:36.998Z,100136.29
2018-03-22T08:05:42.778Z,100131.80
2018-03-22T08:06:48.652Z,100130.39
2018-03-22T08:07:55.148Z,100128.12
2018-03-22T08:09:00.672Z,100132.09
2018-03-22T08:10:06.391Z,100124.43
2018-03-22T08:11:12.884Z,100121.36
2018-03-22T08:12:18.634Z,100121.94
2018-03-22T08:13:24.004Z,100116.61
2018-03-22T08:14:29.716Z,100112.60
2018-03-22T08:15:35.441Z,100105.28
2018-03-22T08:16:41.274Z,100100.86
2018-03-22T08:17:46.990Z,100100.12
2018-03-22T08:18:53.469Z,100098.72
2018-03-22T08:19:59.184Z,100101.52
2018-03-22T08:21:05.670Z,100092.72
2018-03-22T08:22:11.405Z,100091.37
2018-03-22T08:23:17.116Z,100094.28
2018-03-22T08:24:22.817Z,100085.95
2018-03-22T08:25:28.591Z,100084.77
2018-03-22T08:26:35.072Z,100082.95
2018-03-22T08:27:41.586Z,100078.53
2018-03-22T08:28:47.390Z,100078.13
2018-03-22T08:29:53.128Z,100086.23
2018-03-22T08:30:58.845Z,100080.17
2018-03-22T08:32:04.989Z,100087.41
2018-03-22T08:33:12.274Z,100083.69
2018-03-22T08:34:18.957Z,100088.02
2018-03-22T08:35:24.664Z,100081.42
2018-03-22T08:36:30.376Z,100086.17
2018-03-22T08:37:36.121Z,100077.78
2018-03-22T08:38:41.852Z,100076.28
2018-03-22T08:39:47.570Z,100075.22
2018-03-22T08:40:53.284Z,100078.54
2018-03-22T08:41:59.769Z,100075.45
2018-03-22T08:43:05.485Z,100070.31
2018-03-22T08:44:12.049Z,100075.11
2018-03-22T08:45:18.529Z,100068.87
2018-03-22T08:46:24.241Z,100063.05
2018-03-22T08:47:30.732Z,100056.34
2018-03-22T08:48:36.457Z,100060.59
2018-03-22T08:49:42.188Z,100057.16
2018-03-22T08:50:48.661Z,100052.36
2018-03-22T08:51:54.376Z,100051.51
2018-03-22T08:53:00.862Z,100049.40
2018-03-22T08:54:06.604Z,100053.25
2018-03-22T08:55:12.453Z,100050.06
2018-03-22T08:56:18.160Z,100049.16
2018-03-22T08:57:23.878Z,100045.22
2018-03-22T08:58:29.594Z,100046.27
2018-03-22T08:59:35.317Z,100039.77
2018-03-22T09:00:41.053Z,100044.52
2018-03-22T09:01:46.780Z,100047.13
2018-03-22T09:02:53.252Z,100045.17
2018-03-22T09:03:58.985Z,100042.98
2018-03-22T09:05:04.699Z,100042.38
2018-03-22T09:06:12.018Z,100038.97
2018-03-22T09:07:18.508Z,100035.77
2018-03-22T09:08:24.229Z,100035.91
2018-03-22T09:09:29.961Z,100040.14
2018-03-22T09:10:35.661Z,100035.94
2018-03-22T09:11:42.160Z,100025.61
2018-03-22T09:12:47.885Z,100026.27
2018-03-22T09:13:53.589Z,100027.09
2018-03-22T09:15:00.080Z,100014.78
2018-03-22T09:16:06.552Z,100018.50
2018-03-22T09:17:12.340Z,100015.47
2018-03-22T09:18:18.163Z,100017.50
2018-03-22T09:19:23.886Z,100016.98
2018-03-22T09:20:29.605Z,100009.41
2018-03-22T09:21:35.318Z,100011.69
2018-03-22T09:22:41.096Z,100020.52
2018-03-22T09:23:46.814Z,100019.25
2018-03-22T09:24:53.297Z,100017.54
2018-03-22T09:25:59.025Z,100012.84
2018-03-22T09:27:06.928Z,100020.41
2018-03-22T09:28:12.669Z,100013.97
2018-03-22T09:29:18.384Z,100010.51
2018-03-22T09:30:24.862Z,100011.92
2018-03-22T09:31:30.582Z,100006.95
2018-03-22T09:32:36.282Z,100013.20
2018-03-22T09:33:42.030Z,100006.20
2018-03-22T09:34:47.738Z,100009.92
2018-03-22T09:35:53.446Z,100003.86
2018-03-22T09:36:59.929Z,100005.80
2018-03-22T09:38:05.645Z,100000.13
2018-03-22T09:39:12.156Z,100007.48
2018-03-22T09:40:17.861Z,100006.77
2018-03-22T09:41:23.582Z,99996.73
2018-03-22T09:42:30.070Z,100002.02
2018-03-22T09:43:35.782Z,99998.56
2018-03-22T09:44:42.276Z,99998.70
2018-03-22T09:45:48.005Z,99992.77
2018-03-22T09:46:53.715Z,99990.52
2018-03-22T09:48:00.195Z,99988.67
2018-03-22T09:49:06.667Z,99986.27
2018-03-22T09:50:12.404Z,99988.77
2018-03-22T09:51:18.113Z,99980.36
2018-03-22T09:52:24.597Z,99982.83
2018-03-22T09:53:31.068Z,99984.80
2018-03-22T09:54:36.788Z,99981.70
2018-03-22T09:55:43.279Z,99983.32
2018-03-22T09:56:48.813Z,99978.41
2018-03-22T09:57:54.520Z,99982.56
2018-03-22T09:59:00.990Z,99985.19
2018-03-22T10:00:06.369Z,99978.87
2018-03-22T10:01:12.136Z,99975.98
2018-03-22T10:02:17.845Z,99981.03
2018-03-22T10:03:23.553Z,99979.70
2018-03-22T10:04:29.273Z,99982.48
2018-03-22T10:05:35.748Z,99985.02
2018-03-22T10:06:42.310Z,99981.31
2018-03-22T10:07:48.793Z,99982.23
2018-03-22T10:08:54.503Z,99976.22
2018-03-22T10:10:00.213Z,99974.67
2018-03-22T10:11:05.950Z,99977.76
2018-03-22T10:12:11.678Z,99967.34
2018-03-22T10:13:17.393Z,99970.67
2018-03-22T10:14:23.101Z,99974.49
2018-03-22T10:15:28.805Z,99973.22
2018-03-22T10:16:34.516Z,99973.96
2018-03-22T10:17:40.273Z,99968.54
2018-03-22T10:18:45.974Z,99969.66
2018-03-22T10:19:51.686Z,99966.17
2018-03-22T10:20:58.166Z,99969.22
2018-03-22T10:22:03.874Z,99970.09
2018-03-22T10:23:09.601Z,99965.68
2018-03-22T10:24:15.318Z,99963.02
2018-03-22T10:25:21.347Z,99965.57
2018-03-22T10:26:27.058Z,99960.41
2018-03-22T10:27:33.552Z,99960.56
2018-03-22T10:28:39.296Z,99958.97
2018-03-22T10:29:45.066Z,99953.60
2018-03-22T10:30:51.682Z,99956.46
2018-03-22T10:31:57.388Z,99955.07
2018-03-22T10:33:03.114Z,99948.11
2018-03-22T10:34:08.844Z,99949.92
2018-03-22T10:35:14.551Z,99945.95
2018-03-22T10:36:20.258Z,99936.33
2018-03-22T10:37:25.959Z,99938.98
2018-03-22T10:38:31.668Z,99944.29
2018-03-22T10:39:37.431Z,99936.27
2018-03-22T10:40:43.133Z,99934.97
2018-03-22T10:41:49.604Z,99926.50
2018-03-22T10:42:56.084Z,99925.92
2018-03-22T10:44:01.804Z,99926.33
2018-03-22T10:45:07.537Z,99925.53
2018-03-22T10:46:13.286Z,99929.30
2018-03-22T10:47:19.000Z,99919.15
2018-03-22T10:48:24.709Z,99924.02
2018-03-22T10:49:30.417Z,99914.83
2018-03-22T10:50:36.158Z,99918.05
2018-03-22T10:51:41.872Z,99919.39
2018-03-22T10:52:48.345Z,99923.34
2018-03-22T10:53:54.095Z,99907.30
2018-03-22T10:54:59.806Z,99914.95
2018-03-22T10:56:06.302Z,99914.73
2018-03-22T10:57:12.012Z,99921.66
2018-03-22T10:58:18.857Z,99920.73
2018-03-22T10:59:24.561Z,99916.52
2018-03-22T11:00:35.804Z,99913.54
2018-03-22T11:01:46.948Z,99921.72
2018-03-22T11:02:54.224Z,99916.90
2018-03-22T11:03:59.739Z,99918.05
2018-03-22T11:05:04.789Z,99921.94
2018-03-22T11:06:11.262Z,99914.98
2018-03-22T11:07:17.568Z,99921.74
2018-03-22T11:08:23.325Z,99918.80
2018-03-22T11:09:29.024Z,99917.55
2018-03-22T11:10:34.726Z,99918.26
2018-03-22T11:11:41.189Z,99919.13
2018-03-22T11:12:47.699Z,99913.22
2018-03-22T11:13:53.459Z,99917.35
2018-03-22T11:14:59.327Z,99911.04
2018-03-22T11:16:05.812Z,99913.67
2018-03-22T11:17:11.513Z,99909.19
2018-03-22T11:18:18.223Z,99912.45
2018-03-22T11:19:23.940Z,99912.20
2018-03-22T11:20:30.412Z,99908.06
2018-03-22T11:21:36.129Z,99916.11
2018-03-22T11:22:42.603Z,99909.41
2018-03-22T11:23:49.101Z,99912.72
2018-03-22T11:24:54.809Z,99905.08
2018-03-22T11:26:01.061Z,99905.18
2018-03-22T11:27:06.761Z,99896.78
2018-03-22T11:28:13.239Z,99888.05
2018-03-22T11:29:19.733Z,99889.77
2018-03-22T11:30:25.460Z,99894.54
2018-03-22T11:31:31.198Z,99892.86
2018-03-22T11:32:36.913Z,99887.80
2018-03-22T11:33:42.616Z,99882.37
2018-03-22T11:34:48.354Z,99888.05
2018-03-22T11:35:54.070Z,99887.68
2018-03-22T11:36:59.775Z,99877.85
2018-03-22T11:38:05.544Z,99887.13
2018-03-22T11:39:11.250Z,99879.37
2018-03-22T11:40:16.827Z,99876.51
2018-03-22T11:41:22.536Z,99874.02
2018-03-22T11:42:29.221Z,99870.17
2018-03-22T11:43:34.940Z,99869.69
2018-03-22T11:44:40.637Z,99868.30
2018-03-22T11:45:46.369Z,99868.36
2018-03-22T11:46:52.384Z,99866.57
2018-03-22T11:47:58.138Z,99860.27
2018-03-22T11:49:03.890Z,99864.59
2018-03-22T11:50:09.600Z,99851.71
2018-03-22T11:51:16.099Z,99866.33
2018-03-22T11:52:21.819Z,99855.84
2018-03-22T11:53:27.518Z,99864.36
2018-03-22T11:54:33.233Z,99856.95
2018-03-22T11:55:38.942Z,99855.47
2018-03-22T11:56:44.883Z,99845.77
2018-03-22T11:57:50.615Z,99850.62
2018-03-22T11:58:57.083Z,99851.53
2018-03-22T12:00:02.796Z,99847.95
2018-03-22T12:01:09.281Z,99848.37
2018-03-22T12:02:15.012Z,99848.83
2018-03-22T12:03:21.494Z,99845.38
2018-03-22T12:04:27.199Z,99844.64
2018-03-22T12:05:33.428Z,99847.13
2018-03-22T12:06:39.142Z,99844.12
2018-03-22T12:07:44.875Z,99846.09
2018-03-22T12:08:50.585Z,99846.09
2018-03-22T12:09:57.059Z,99837.79
2018-03-22T12:11:02.798Z,99842.13
2018-03-22T12:12:09.441Z,99844.64
2018-03-22T12:13:15.961Z,99843.98
2018-03-22T12:14:21.668Z,99838.45
2018-03-22T12:15:27.393Z,99837.06
2018-03-22T12:16:33.852Z,99831.00
2018-03-22T12:17:39.570Z,99835.42
2018-03-22T12:18:46.062Z,99830.66
2018-03-22T12:19:51.769Z,99830.14
2018-03-22T12:20:58.253Z,99831.69
2018-03-22T12:22:03.959Z,99825.83
2018-03-22T12:23:09.686Z,99826.86
2018-03-22T12:24:15.406Z,99825.48
2018-03-22T12:25:21.128Z,99823.45
2018-03-22T12:26:26.835Z,99821.47
2018-03-22T12:27:33.322Z,99826.20
2018-03-22T12:28:39.036Z,99824.68
2018-03-22T12:29:45.545Z,99823.34
2018-03-22T12:30:51.254Z,99814.70
2018-03-22T12:31:56.971Z,99819.69
2018-03-22T12:33:03.865Z,99819.20
2018-03-22T12:34:09.570Z,99816.94
2018-03-22T12:35:15.364Z,99811.58
2018-03-22T12:36:21.080Z,99806.82
2018-03-22T12:37:26.785Z,99807.11